sensor_id;sensor_type;location;lat;lon;timestamp;pressure;altitude;pressure_sealevel;temperature;humidity
71907;BME280;59781;52.090;5.030;2024-03-22T00:01:52;102161.22;;;11.63;100.00
71907;BME280;59781;52.090;5.030;2024-03-22T00:04:19;102142.28;;;11.73;100.00
71907;BME280;59781;52.090;5.030;2024-03-22T00:06:46;102146.25;;;11.69;100.00
71907;BME280;59781;52.090;5.030;2024-03-22T00:09:14;102137.81;;;11.44;100.00
71907;BME280;59781;52.090;5.030;2024-03-22T00:11:42;102135.44;;;11.32;100.00
71907;BME280;59781;52.090;5.030;2024-03-22T00:14:11;102135.28;;;11.43;100.00
71907;BME280;59781;52.090;5.030;2024-03-22T00:16:37;102121.34;;;11.47;100.00
71907;BME280;59781;52.090;5.030;2024-03-22T00:19:03;102117.59;;;11.58;100.00
71907;BME280;59781;52.090;5.030;2024-03-22T00:21:30;102116.06;;;11.56;100.00
71907;BME280;59781;52.090;5.030;2024-03-22T00:23:59;102114.69;;;11.42;100.00
71907;BME280;59781;52.090;5.030;2024-03-22T00:26:26;102108.84;;;11.46;100.00
71907;BME280;59781;52.090;5.030;2024-03-22T00:28:52;102104.09;;;11.21;100.00
71907;BME280;59781;52.090;5.030;2024-03-22T00:31:18;102092.31;;;11.12;100.00
71907;BME280;59781;52.090;5.030;2024-03-22T00:33:44;102091.97;;;11.44;100.00
71907;BME280;59781;52.090;5.030;2024-03-22T00:36:10;102084.69;;;11.55;100.00
71907;BME280;59781;52.090;5.030;2024-03-22T00:38:36;102070.47;;;11.62;100.00
71907;BME280;59781;52.090;5.030;2024-03-22T00:41:02;102057.31;;;11.77;100.00
71907;BME280;59781;52.090;5.030;2024-03-22T00:43:27;102044.81;;;11.76;100.00
71907;BME280;59781;52.090;5.030;2024-03-22T00:45:53;102045.13;;;11.36;100.00
71907;BME280;59781;52.090;5.030;2024-03-22T00:48:19;102053.50;;;11.42;100.00
71907;BME280;59781;52.090;5.030;2024-03-22T00:50:45;102042.25;;;11.47;100.00
71907;BME280;59781;52.090;5.030;2024-03-22T00:53:11;102043.72;;;11.41;100.00
71907;BME280;59781;52.090;5.030;2024-03-22T00:55:37;102041.28;;;11.38;100.00
71907;BME280;59781;52.090;5.030;2024-03-22T00:58:02;102051.69;;;11.33;100.00
71907;BME280;59781;52.090;5.030;2024-03-22T01:00:28;102047.00;;;11.26;100.00
71907;BME280;59781;52.090;5.030;2024-03-22T01:02:54;102047.91;;;11.07;100.00
71907;BME280;59781;52.090;5.030;2024-03-22T01:05:19;102031.41;;;11.19;100.00
71907;BME280;59781;52.090;5.030;2024-03-22T01:07:45;102035.72;;;10.93;100.00
71907;BME280;59781;52.090;5.030;2024-03-22T01:10:11;102040.50;;;11.18;100.00
71907;BME280;59781;52.090;5.030;2024-03-22T01:12:38;102042.09;;;11.11;100.00
71907;BME280;59781;52.090;5.030;2024-03-22T01:15:06;102039.53;;;11.00;100.00
71907;BME280;59781;52.090;5.030;2024-03-22T01:17:33;102039.53;;;10.90;100.00
71907;BME280;59781;52.090;5.030;2024-03-22T01:19:59;102033.28;;;11.00;100.00
71907;BME280;59781;52.090;5.030;2024-03-22T01:22:25;102039.78;;;11.16;100.00
71907;BME280;59781;52.090;5.030;2024-03-22T01:24:50;102027.81;;;11.29;100.00
71907;BME280;59781;52.090;5.030;2024-03-22T01:27:16;102025.63;;;11.05;100.00
71907;BME280;59781;52.090;5.030;2024-03-22T01:29:42;102033.00;;;11.12;100.00
71907;BME280;59781;52.090;5.030;2024-03-22T01:32:07;102029.31;;;11.04;100.00
71907;BME280;59781;52.090;5.030;2024-03-22T01:34:33;102034.16;;;10.81;100.00
71907;BME280;59781;52.090;5.030;2024-03-22T01:37:00;102026.91;;;10.91;100.00
71907;BME280;59781;52.090;5.030;2024-03-22T01:39:26;102036.59;;;10.94;100.00
71907;BME280;59781;52.090;5.030;2024-03-22T01:41:51;102025.09;;;11.01;100.00
71907;BME280;59781;52.090;5.030;2024-03-22T01:44:17;102032.19;;;10.83;100.00
71907;BME280;59781;52.090;5.030;2024-03-22T01:46:45;102029.53;;;10.63;100.00
71907;BME280;59781;52.090;5.030;2024-03-22T01:49:15;102029.91;;;10.88;100.00
71907;BME280;59781;52.090;5.030;2024-03-22T01:51:42;102026.66;;;10.94;100.00
71907;BME280;59781;52.090;5.030;2024-03-22T01:54:10;102017.13;;;11.00;100.00
71907;BME280;59781;52.090;5.030;2024-03-22T01:56:37;102021.16;;;10.67;100.00
71907;BME280;59781;52.090;5.030;2024-03-22T01:59:06;102011.47;;;10.93;100.00
71907;BME280;59781;52.090;5.030;2024-03-22T02:01:33;102022.28;;;10.83;100.00
71907;BME280;59781;52.090;5.030;2024-03-22T02:04:00;102013.22;;;10.55;100.00
71907;BME280;59781;52.090;5.030;2024-03-22T02:06:26;102011.06;;;10.40;100.00
71907;BME280;59781;52.090;5.030;2024-03-22T02:08:52;102023.41;;;10.52;100.00
71907;BME280;59781;52.090;5.030;2024-03-22T02:11:18;102015.75;;;10.47;100.00
71907;BME280;59781;52.090;5.030;2024-03-22T02:13:44;102010.94;;;10.60;100.00
71907;BME280;59781;52.090;5.030;2024-03-22T02:16:10;102008.38;;;10.59;100.00
71907;BME280;59781;52.090;5.030;2024-03-22T02:18:36;101994.91;;;10.59;100.00
71907;BME280;59781;52.090;5.030;2024-03-22T02:21:02;102001.16;;;10.50;100.00
71907;BME280;59781;52.090;5.030;2024-03-22T02:23:35;102010.81;;;10.43;100.00
71907;BME280;59781;52.090;5.030;2024-03-22T02:26:06;102004.13;;;10.27;100.00
71907;BME280;59781;52.090;5.030;2024-03-22T02:28:33;102000.31;;;10.30;100.00
71907;BME280;59781;52.090;5.030;2024-03-22T02:31:04;102001.44;;;10.37;100.00
71907;BME280;59781;52.090;5.030;2024-03-22T02:33:30;101993.50;;;10.36;100.00
71907;BME280;59781;52.090;5.030;2024-03-22T02:35:56;101977.50;;;10.34;100.00
71907;BME280;59781;52.090;5.030;2024-03-22T02:38:23;101983.44;;;10.47;100.00
71907;BME280;59781;52.090;5.030;2024-03-22T02:40:51;101978.22;;;10.36;100.00
71907;BME280;59781;52.090;5.030;2024-03-22T02:43:17;101980.91;;;10.26;100.00
71907;BME280;59781;52.090;5.030;2024-03-22T02:45:44;101973.66;;;10.27;100.00
71907;BME280;59781;52.090;5.030;2024-03-22T02:48:11;101961.34;;;10.34;100.00
71907;BME280;59781;52.090;5.030;2024-03-22T02:50:37;101962.47;;;10.41;100.00
71907;BME280;59781;52.090;5.030;2024-03-22T02:53:04;101957.81;;;10.33;100.00
71907;BME280;59781;52.090;5.030;2024-03-22T02:55:30;101957.91;;;10.32;100.00
71907;BME280;59781;52.090;5.030;2024-03-22T02:58:01;101944.34;;;10.24;100.00
71907;BME280;59781;52.090;5.030;2024-03-22T03:00:28;101941.75;;;10.42;100.00
71907;BME280;59781;52.090;5.030;2024-03-22T03:02:54;101912.28;;;10.50;100.00
71907;BME280;59781;52.090;5.030;2024-03-22T03:05:19;101923.78;;;10.32;100.00
71907;BME280;59781;52.090;5.030;2024-03-22T03:07:45;101923.34;;;10.27;100.00
71907;BME280;59781;52.090;5.030;2024-03-22T03:10:12;101922.50;;;10.27;100.00
71907;BME280;59781;52.090;5.030;2024-03-22T03:12:38;101927.56;;;10.11;100.00
71907;BME280;59781;52.090;5.030;2024-03-22T03:15:03;101920.34;;;10.21;100.00
71907;BME280;59781;52.090;5.030;2024-03-22T03:17:29;101909.56;;;10.21;100.00
71907;BME280;59781;52.090;5.030;2024-03-22T03:19:55;101906.03;;;10.20;100.00
71907;BME280;59781;52.090;5.030;2024-03-22T03:22:21;101902.94;;;10.15;100.00
71907;BME280;59781;52.090;5.030;2024-03-22T03:24:46;101887.06;;;10.12;100.00
71907;BME280;59781;52.090;5.030;2024-03-22T03:27:12;101885.50;;;10.10;100.00
71907;BME280;59781;52.090;5.030;2024-03-22T03:29:38;101869.81;;;10.24;100.00
71907;BME280;59781;52.090;5.030;2024-03-22T03:32:03;101872.47;;;10.15;100.00
71907;BME280;59781;52.090;5.030;2024-03-22T03:34:29;101865.41;;;10.14;100.00
71907;BME280;59781;52.090;5.030;2024-03-22T03:36:55;101859.44;;;9.91;100.00
71907;BME280;59781;52.090;5.030;2024-03-22T03:39:21;101865.66;;;10.11;100.00
71907;BME280;59781;52.090;5.030;2024-03-22T03:41:46;101863.25;;;10.17;100.00
71907;BME280;59781;52.090;5.030;2024-03-22T03:44:12;101870.19;;;10.10;100.00
71907;BME280;59781;52.090;5.030;2024-03-22T03:46:38;101871.34;;;9.98;100.00
71907;BME280;59781;52.090;5.030;2024-03-22T03:49:03;101866.53;;;9.92;100.00
71907;BME280;59781;52.090;5.030;2024-03-22T03:51:29;101869.34;;;10.00;100.00
71907;BME280;59781;52.090;5.030;2024-03-22T03:53:55;101871.91;;;9.92;100.00
71907;BME280;59781;52.090;5.030;2024-03-22T03:56:20;101866.53;;;10.01;100.00
71907;BME280;59781;52.090;5.030;2024-03-22T03:58:46;101868.22;;;10.02;100.00
71907;BME280;59781;52.090;5.030;2024-03-22T04:01:12;101862.72;;;9.94;100.00
71907;BME280;59781;52.090;5.030;2024-03-22T04:03:38;101847.69;;;9.92;100.00
71907;BME280;59781;52.090;5.030;2024-03-22T04:06:03;101853.50;;;10.06;100.00
71907;BME280;59781;52.090;5.030;2024-03-22T04:08:29;101852.66;;;9.67;100.00
71907;BME280;59781;52.090;5.030;2024-03-22T04:10:56;101846.97;;;9.90;100.00
71907;BME280;59781;52.090;5.030;2024-03-22T04:13:23;101841.59;;;9.80;100.00
71907;BME280;59781;52.090;5.030;2024-03-22T04:15:49;101845.13;;;9.81;100.00
71907;BME280;59781;52.090;5.030;2024-03-22T04:18:15;101843.88;;;9.94;100.00
71907;BME280;59781;52.090;5.030;2024-03-22T04:20:41;101850.97;;;10.05;100.00
71907;BME280;59781;52.090;5.030;2024-03-22T04:23:06;101846.84;;;9.91;100.00
71907;BME280;59781;52.090;5.030;2024-03-22T04:25:32;101848.41;;;10.03;100.00
71907;BME280;59781;52.090;5.030;2024-03-22T04:27:58;101851.22;;;10.02;100.00
71907;BME280;59781;52.090;5.030;2024-03-22T04:30:23;101851.09;;;10.03;100.00
71907;BME280;59781;52.090;5.030;2024-03-22T04:32:49;101840.06;;;9.87;100.00
71907;BME280;59781;52.090;5.030;2024-03-22T04:35:14;101842.88;;;9.95;100.00
71907;BME280;59781;52.090;5.030;2024-03-22T04:37:40;101846.56;;;9.85;100.00
71907;BME280;59781;52.090;5.030;2024-03-22T04:40:06;101851.66;;;9.88;100.00
71907;BME280;59781;52.090;5.030;2024-03-22T04:42:33;101850.38;;;10.01;100.00
71907;BME280;59781;52.090;5.030;2024-03-22T04:44:59;101855.91;;;9.90;100.00
71907;BME280;59781;52.090;5.030;2024-03-22T04:47:24;101857.88;;;9.78;100.00
71907;BME280;59781;52.090;5.030;2024-03-22T04:49:50;101854.91;;;9.91;100.00
71907;BME280;59781;52.090;5.030;2024-03-22T04:52:16;101850.81;;;9.97;100.00
71907;BME280;59781;52.090;5.030;2024-03-22T04:54:41;101857.59;;;9.91;100.00
71907;BME280;59781;52.090;5.030;2024-03-22T04:57:07;101866.53;;;9.82;100.00
71907;BME280;59781;52.090;5.030;2024-03-22T04:59:33;101862.13;;;9.91;100.00
71907;BME280;59781;52.090;5.030;2024-03-22T05:01:58;101856.59;;;9.83;100.00
71907;BME280;59781;52.090;5.030;2024-03-22T05:04:24;101859.03;;;9.86;100.00
71907;BME280;59781;52.090;5.030;2024-03-22T05:06:50;101856.59;;;9.92;100.00
71907;BME280;59781;52.090;5.030;2024-03-22T05:09:15;101861.56;;;9.68;100.00
71907;BME280;59781;52.090;5.030;2024-03-22T05:11:41;101853.66;;;9.95;100.00
71907;BME280;59781;52.090;5.030;2024-03-22T05:14:07;101859.88;;;9.86;100.00
71907;BME280;59781;52.090;5.030;2024-03-22T05:16:32;101855.75;;;9.92;100.00
71907;BME280;59781;52.090;5.030;2024-03-22T05:18:58;101851.09;;;9.74;100.00
71907;BME280;59781;52.090;5.030;2024-03-22T05:21:24;101857.19;;;9.76;100.00
71907;BME280;59781;52.090;5.030;2024-03-22T05:23:50;101850.53;;;9.81;100.00
71907;BME280;59781;52.090;5.030;2024-03-22T05:26:15;101847.44;;;9.85;100.00
71907;BME280;59781;52.090;5.030;2024-03-22T05:28:41;101842.44;;;10.00;100.00
71907;BME280;59781;52.090;5.030;2024-03-22T05:31:07;101835.97;;;9.73;100.00
71907;BME280;59781;52.090;5.030;2024-03-22T05:33:33;101834.66;;;9.48;100.00
71907;BME280;59781;52.090;5.030;2024-03-22T05:35:59;101845.44;;;9.77;100.00
71907;BME280;59781;52.090;5.030;2024-03-22T05:38:24;101837.78;;;9.73;100.00
71907;BME280;59781;52.090;5.030;2024-03-22T05:40:50;101826.59;;;9.87;100.00
71907;BME280;59781;52.090;5.030;2024-03-22T05:43:16;101825.75;;;9.77;100.00
71907;BME280;59781;52.090;5.030;2024-03-22T05:45:41;101823.47;;;9.63;100.00
71907;BME280;59781;52.090;5.030;2024-03-22T05:48:07;101820.50;;;9.56;100.00
71907;BME280;59781;52.090;5.030;2024-03-22T05:50:33;101818.53;;;9.77;100.00
71907;BME280;59781;52.090;5.030;2024-03-22T05:52:58;101818.94;;;9.63;100.00
71907;BME280;59781;52.090;5.030;2024-03-22T05:55:24;101810.84;;;9.92;100.00
71907;BME280;59781;52.090;5.030;2024-03-22T05:57:52;101808.91;;;9.65;100.00
71907;BME280;59781;52.090;5.030;2024-03-22T06:00:18;101803.22;;;9.88;100.00
71907;BME280;59781;52.090;5.030;2024-03-22T06:02:44;101795.44;;;10.04;100.00
71907;BME280;59781;52.090;5.030;2024-03-22T06:05:09;101785.41;;;9.87;100.00
71907;BME280;59781;52.090;5.030;2024-03-22T06:07:35;101789.63;;;9.89;100.00
71907;BME280;59781;52.090;5.030;2024-03-22T06:10:08;101783.19;;;10.19;100.00
71907;BME280;59781;52.090;5.030;2024-03-22T06:12:35;101781.84;;;9.96;100.00
71907;BME280;59781;52.090;5.030;2024-03-22T06:15:01;101788.22;;;10.04;100.00
71907;BME280;59781;52.090;5.030;2024-03-22T06:17:32;101774.44;;;10.07;100.00
71907;BME280;59781;52.090;5.030;2024-03-22T06:19:59;101775.44;;;10.06;100.00
71907;BME280;59781;52.090;5.030;2024-03-22T06:22:25;101781.00;;;9.95;100.00
71907;BME280;59781;52.090;5.030;2024-03-22T06:24:52;101773.91;;;9.94;100.00
71907;BME280;59781;52.090;5.030;2024-03-22T06:27:18;101781.69;;;10.07;100.00
71907;BME280;59781;52.090;5.030;2024-03-22T06:29:44;101779.13;;;10.05;100.00
71907;BME280;59781;52.090;5.030;2024-03-22T06:32:10;101774.56;;;10.16;100.00
71907;BME280;59781;52.090;5.030;2024-03-22T06:34:36;101768.75;;;10.20;100.00
71907;BME280;59781;52.090;5.030;2024-03-22T06:37:02;101774.72;;;10.14;100.00
71907;BME280;59781;52.090;5.030;2024-03-22T06:39:27;101769.16;;;10.35;100.00
71907;BME280;59781;52.090;5.030;2024-03-22T06:41:53;101770.19;;;10.61;100.00
71907;BME280;59781;52.090;5.030;2024-03-22T06:44:19;101767.69;;;10.50;100.00
71907;BME280;59781;52.090;5.030;2024-03-22T06:46:45;101776.50;;;10.52;100.00
71907;BME280;59781;52.090;5.030;2024-03-22T06:49:10;101777.03;;;10.56;100.00
71907;BME280;59781;52.090;5.030;2024-03-22T06:51:36;101782.16;;;10.49;100.00
71907;BME280;59781;52.090;5.030;2024-03-22T06:54:02;101781.34;;;10.39;100.00
71907;BME280;59781;52.090;5.030;2024-03-22T06:56:27;101788.09;;;10.53;100.00
71907;BME280;59781;52.090;5.030;2024-03-22T06:58:53;101779.22;;;10.43;100.00
71907;BME280;59781;52.090;5.030;2024-03-22T07:01:19;101778.91;;;10.46;100.00
71907;BME280;59781;52.090;5.030;2024-03-22T07:03:46;101782.63;;;10.35;100.00
71907;BME280;59781;52.090;5.030;2024-03-22T07:06:14;101774.59;;;10.62;100.00
71907;BME280;59781;52.090;5.030;2024-03-22T07:08:40;101773.50;;;10.55;100.00
71907;BME280;59781;52.090;5.030;2024-03-22T07:11:06;101777.69;;;10.68;100.00
71907;BME280;59781;52.090;5.030;2024-03-22T07:13:32;101764.78;;;10.61;100.00
71907;BME280;59781;52.090;5.030;2024-03-22T07:15:58;101760.31;;;10.52;100.00
71907;BME280;59781;52.090;5.030;2024-03-22T07:18:24;101773.63;;;10.54;100.00
71907;BME280;59781;52.090;5.030;2024-03-22T07:20:49;101772.91;;;10.52;100.00
71907;BME280;59781;52.090;5.030;2024-03-22T07:23:15;101775.59;;;10.52;100.00
71907;BME280;59781;52.090;5.030;2024-03-22T07:25:41;101779.47;;;10.40;100.00
71907;BME280;59781;52.090;5.030;2024-03-22T07:28:11;101785.00;;;10.48;100.00
71907;BME280;59781;52.090;5.030;2024-03-22T07:30:37;101779.41;;;10.59;100.00
71907;BME280;59781;52.090;5.030;2024-03-22T07:33:03;101778.06;;;10.45;100.00
71907;BME280;59781;52.090;5.030;2024-03-22T07:35:29;101774.19;;;10.57;100.00
71907;BME280;59781;52.090;5.030;2024-03-22T07:37:56;101768.88;;;10.38;100.00
71907;BME280;59781;52.090;5.030;2024-03-22T07:40:22;101770.09;;;10.53;100.00
71907;BME280;59781;52.090;5.030;2024-03-22T07:42:47;101774.09;;;10.40;100.00
71907;BME280;59781;52.090;5.030;2024-03-22T07:45:13;101773.78;;;10.52;100.00
71907;BME280;59781;52.090;5.030;2024-03-22T07:47:39;101778.19;;;10.53;100.00
71907;BME280;59781;52.090;5.030;2024-03-22T07:50:07;101785.47;;;10.33;100.00
71907;BME280;59781;52.090;5.030;2024-03-22T07:52:34;101782.84;;;10.51;100.00
71907;BME280;59781;52.090;5.030;2024-03-22T07:54:59;101783.63;;;10.34;100.00
71907;BME280;59781;52.090;5.030;2024-03-22T07:57:28;101790.41;;;10.38;100.00
71907;BME280;59781;52.090;5.030;2024-03-22T07:59:57;101787.03;;;10.36;100.00
71907;BME280;59781;52.090;5.030;2024-03-22T08:02:23;101798.97;;;10.24;100.00
71907;BME280;59781;52.090;5.030;2024-03-22T08:04:49;101798.09;;;10.33;100.00
71907;BME280;59781;52.090;5.030;2024-03-22T08:07:15;101792.94;;;10.40;100.00
71907;BME280;59781;52.090;5.030;2024-03-22T08:09:40;101796.63;;;10.39;100.00
71907;BME280;59781;52.090;5.030;2024-03-22T08:12:06;101788.19;;;10.61;100.00
71907;BME280;59781;52.090;5.030;2024-03-22T08:14:32;101797.13;;;10.24;100.00
71907;BME280;59781;52.090;5.030;2024-03-22T08:16:58;101802.75;;;10.21;100.00
71907;BME280;59781;52.090;5.030;2024-03-22T08:19:23;101787.75;;;10.28;100.00
71907;BME280;59781;52.090;5.030;2024-03-22T08:21:49;101807.47;;;10.00;100.00
71907;BME280;59781;52.090;5.030;2024-03-22T08:24:14;101810.72;;;10.03;100.00
71907;BME280;59781;52.090;5.030;2024-03-22T08:26:40;101816.81;;;10.05;100.00
71907;BME280;59781;52.090;5.030;2024-03-22T08:29:10;101811.16;;;9.99;100.00
71907;BME280;59781;52.090;5.030;2024-03-22T08:31:36;101821.63;;;9.92;100.00
71907;BME280;59781;52.090;5.030;2024-03-22T08:34:02;101820.38;;;9.96;100.00
71907;BME280;59781;52.090;5.030;2024-03-22T08:36:29;101818.91;;;10.12;100.00
71907;BME280;59781;52.090;5.030;2024-03-22T08:38:55;101821.38;;;9.76;100.00
71907;BME280;59781;52.090;5.030;2024-03-22T08:41:21;101824.06;;;9.76;100.00
71907;BME280;59781;52.090;5.030;2024-03-22T08:43:46;101822.22;;;9.96;100.00
71907;BME280;59781;52.090;5.030;2024-03-22T08:46:12;101815.00;;;9.87;100.00
71907;BME280;59781;52.090;5.030;2024-03-22T08:48:38;101799.25;;;9.82;100.00
71907;BME280;59781;52.090;5.030;2024-03-22T08:51:03;101807.91;;;9.86;100.00
71907;BME280;59781;52.090;5.030;2024-03-22T08:53:29;101808.31;;;9.81;100.00
71907;BME280;59781;52.090;5.030;2024-03-22T08:55:55;101809.59;;;9.87;100.00
71907;BME280;59781;52.090;5.030;2024-03-22T08:58:21;101809.75;;;10.04;100.00
71907;BME280;59781;52.090;5.030;2024-03-22T09:00:46;101797.97;;;10.25;100.00
71907;BME280;59781;52.090;5.030;2024-03-22T09:03:12;101796.28;;;10.24;100.00
71907;BME280;59781;52.090;5.030;2024-03-22T09:05:40;101797.28;;;10.23;100.00
71907;BME280;59781;52.090;5.030;2024-03-22T09:08:06;101799.38;;;10.00;100.00
71907;BME280;59781;52.090;5.030;2024-03-22T09:10:32;101799.13;;;10.03;100.00
71907;BME280;59781;52.090;5.030;2024-03-22T09:12:58;101804.03;;;10.17;100.00
71907;BME280;59781;52.090;5.030;2024-03-22T09:15:24;101799.09;;;10.22;100.00
71907;BME280;59781;52.090;5.030;2024-03-22T09:17:52;101804.47;;;10.22;100.00
71907;BME280;59781;52.090;5.030;2024-03-22T09:20:18;101803.88;;;10.19;100.00
71907;BME280;59781;52.090;5.030;2024-03-22T09:22:43;101806.59;;;10.19;100.00
71907;BME280;59781;52.090;5.030;2024-03-22T09:25:09;101802.66;;;10.03;100.00
71907;BME280;59781;52.090;5.030;2024-03-22T09:27:35;101801.38;;;9.98;100.00
71907;BME280;59781;52.090;5.030;2024-03-22T09:30:01;101806.59;;;10.09;100.00
71907;BME280;59781;52.090;5.030;2024-03-22T09:32:29;101805.63;;;10.00;100.00
71907;BME280;59781;52.090;5.030;2024-03-22T09:34:55;101802.50;;;10.05;100.00
71907;BME280;59781;52.090;5.030;2024-03-22T09:37:21;101799.34;;;10.19;100.00
71907;BME280;59781;52.090;5.030;2024-03-22T09:39:47;101802.72;;;10.41;100.00
71907;BME280;59781;52.090;5.030;2024-03-22T09:42:17;101789.28;;;10.21;100.00
71907;BME280;59781;52.090;5.030;2024-03-22T09:44:48;101795.56;;;10.02;100.00
71907;BME280;59781;52.090;5.030;2024-03-22T09:47:20;101800.50;;;10.17;100.00
71907;BME280;59781;52.090;5.030;2024-03-22T09:49:46;101796.66;;;10.19;100.00
71907;BME280;59781;52.090;5.030;2024-03-22T09:52:15;101794.56;;;10.13;100.00
71907;BME280;59781;52.090;5.030;2024-03-22T09:54:44;101791.59;;;10.26;100.00
71907;BME280;59781;52.090;5.030;2024-03-22T09:57:14;101788.72;;;10.18;100.00
71907;BME280;59781;52.090;5.030;2024-03-22T09:59:42;101781.38;;;10.10;100.00
71907;BME280;59781;52.090;5.030;2024-03-22T10:02:11;101781.19;;;10.41;100.00
71907;BME280;59781;52.090;5.030;2024-03-22T10:04:38;101772.59;;;10.18;100.00
71907;BME280;59781;52.090;5.030;2024-03-22T10:07:07;101769.91;;;10.08;100.00
71907;BME280;59781;52.090;5.030;2024-03-22T10:09:36;101761.66;;;10.29;100.00
71907;BME280;59781;52.090;5.030;2024-03-22T10:12:03;101768.22;;;10.07;100.00
71907;BME280;59781;52.090;5.030;2024-03-22T10:14:30;101775.44;;;10.26;100.00
71907;BME280;59781;52.090;5.030;2024-03-22T10:16:56;101769.59;;;10.30;100.00
71907;BME280;59781;52.090;5.030;2024-03-22T10:19:23;101771.59;;;10.19;100.00
71907;BME280;59781;52.090;5.030;2024-03-22T10:22:04;101774.00;;;10.22;100.00
71907;BME280;59781;52.090;5.030;2024-03-22T10:24:31;101771.56;;;10.38;100.00
71907;BME280;59781;52.090;5.030;2024-03-22T10:26:58;101776.22;;;10.46;100.00
71907;BME280;59781;52.090;5.030;2024-03-22T10:29:24;101773.91;;;10.51;100.00
71907;BME280;59781;52.090;5.030;2024-03-22T10:31:53;101773.94;;;10.41;100.00
71907;BME280;59781;52.090;5.030;2024-03-22T10:34:24;101776.53;;;10.43;100.00
71907;BME280;59781;52.090;5.030;2024-03-22T10:36:50;101768.09;;;10.55;100.00
71907;BME280;59781;52.090;5.030;2024-03-22T10:39:17;101772.88;;;10.61;100.00
71907;BME280;59781;52.090;5.030;2024-03-22T10:41:47;101771.25;;;10.41;100.00
71907;BME280;59781;52.090;5.030;2024-03-22T10:44:14;101773.69;;;10.44;100.00
71907;BME280;59781;52.090;5.030;2024-03-22T10:46:46;101770.00;;;10.36;100.00
71907;BME280;59781;52.090;5.030;2024-03-22T10:49:16;101769.91;;;10.27;100.00
71907;BME280;59781;52.090;5.030;2024-03-22T10:51:57;101777.91;;;10.47;100.00
71907;BME280;59781;52.090;5.030;2024-03-22T10:54:31;101764.72;;;10.53;100.00
71907;BME280;59781;52.090;5.030;2024-03-22T10:57:01;101779.75;;;10.46;100.00
71907;BME280;59781;52.090;5.030;2024-03-22T10:59:27;101759.91;;;10.47;100.00
71907;BME280;59781;52.090;5.030;2024-03-22T11:02:03;101763.88;;;10.53;100.00
71907;BME280;59781;52.090;5.030;2024-03-22T11:04:32;101763.03;;;10.52;100.00
71907;BME280;59781;52.090;5.030;2024-03-22T11:06:58;101764.00;;;10.79;100.00
71907;BME280;59781;52.090;5.030;2024-03-22T11:09:26;101758.72;;;10.59;100.00
71907;BME280;59781;52.090;5.030;2024-03-22T11:11:54;101765.06;;;10.68;100.00
71907;BME280;59781;52.090;5.030;2024-03-22T11:14:21;101747.25;;;10.85;100.00
71907;BME280;59781;52.090;5.030;2024-03-22T11:16:47;101751.28;;;10.71;100.00
71907;BME280;59781;52.090;5.030;2024-03-22T11:19:13;101755.91;;;10.51;100.00
71907;BME280;59781;52.090;5.030;2024-03-22T11:21:39;101752.31;;;10.33;100.00
71907;BME280;59781;52.090;5.030;2024-03-22T11:24:06;101747.59;;;10.45;100.00
71907;BME280;59781;52.090;5.030;2024-03-22T11:26:32;101740.47;;;10.53;100.00
71907;BME280;59781;52.090;5.030;2024-03-22T11:28:59;101746.47;;;10.38;100.00
71907;BME280;59781;52.090;5.030;2024-03-22T11:31:25;101747.16;;;10.40;100.00
71907;BME280;59781;52.090;5.030;2024-03-22T11:33:56;101747.78;;;10.61;100.00
71907;BME280;59781;52.090;5.030;2024-03-22T11:36:22;101737.16;;;10.59;100.00
71907;BME280;59781;52.090;5.030;2024-03-22T11:38:49;101736.13;;;10.70;100.00
71907;BME280;59781;52.090;5.030;2024-03-22T11:41:30;101737.56;;;10.37;100.00
71907;BME280;59781;52.090;5.030;2024-03-22T11:43:58;101740.13;;;10.19;100.00
71907;BME280;59781;52.090;5.030;2024-03-22T11:46:26;101738.94;;;10.41;100.00
71907;BME280;59781;52.090;5.030;2024-03-22T11:48:53;101736.28;;;10.31;100.00
71907;BME280;59781;52.090;5.030;2024-03-22T11:51:20;101733.47;;;10.60;100.00
71907;BME280;59781;52.090;5.030;2024-03-22T11:53:53;101731.50;;;10.62;100.00
71907;BME280;59781;52.090;5.030;2024-03-22T11:56:22;101737.44;;;10.19;100.00
71907;BME280;59781;52.090;5.030;2024-03-22T11:58:48;101730.34;;;10.28;100.00
71907;BME280;59781;52.090;5.030;2024-03-22T12:01:15;101718.69;;;10.37;100.00
71907;BME280;59781;52.090;5.030;2024-03-22T12:03:44;101718.69;;;10.37;100.00
71907;BME280;59781;52.090;5.030;2024-03-22T12:06:10;101723.94;;;10.39;100.00
71907;BME280;59781;52.090;5.030;2024-03-22T12:08:37;101718.81;;;10.45;100.00
71907;BME280;59781;52.090;5.030;2024-03-22T12:11:07;101720.00;;;10.60;100.00
71907;BME280;59781;52.090;5.030;2024-03-22T12:13:34;101719.66;;;10.73;100.00
71907;BME280;59781;52.090;5.030;2024-03-22T12:16:00;101708.28;;;10.52;100.00
71907;BME280;59781;52.090;5.030;2024-03-22T12:18:27;101710.78;;;10.63;100.00
71907;BME280;59781;52.090;5.030;2024-03-22T12:20:53;101700.09;;;10.71;100.00
71907;BME280;59781;52.090;5.030;2024-03-22T12:23:19;101690.31;;;10.70;100.00
71907;BME280;59781;52.090;5.030;2024-03-22T12:25:44;101689.38;;;10.61;100.00
71907;BME280;59781;52.090;5.030;2024-03-22T12:28:10;101692.16;;;10.70;100.00
71907;BME280;59781;52.090;5.030;2024-03-22T12:30:36;101685.59;;;10.54;100.00
71907;BME280;59781;52.090;5.030;2024-03-22T12:33:01;101673.31;;;10.87;100.00
71907;BME280;59781;52.090;5.030;2024-03-22T12:35:27;101676.91;;;10.60;100.00
71907;BME280;59781;52.090;5.030;2024-03-22T12:37:53;101669.59;;;10.53;100.00
71907;BME280;59781;52.090;5.030;2024-03-22T12:40:19;101676.25;;;10.49;100.00